sensor_id;sensor_type;location;lat;lon;timestamp;temperature;humidity
3678;DHT22;1855;50.934;6.958;2023-05-23T00:01:12;16.20;98.50
3678;DHT22;1855;50.934;6.958;2023-05-23T00:03:41;16.20;98.60
3678;DHT22;1855;50.934;6.958;2023-05-23T00:06:08;16.20;98.90
3678;DHT22;1855;50.934;6.958;2023-05-23T00:08:35;16.10;98.60
3678;DHT22;1855;50.934;6.958;2023-05-23T00:11:03;16.10;99.00
3678;DHT22;1855;50.934;6.958;2023-05-23T00:13:30;16.10;99.00
3678;DHT22;1855;50.934;6.958;2023-05-23T00:15:59;16.00;99.00
3678;DHT22;1855;50.934;6.958;2023-05-23T00:18:26;16.00;99.10
3678;DHT22;1855;50.934;6.958;2023-05-23T00:20:55;16.00;98.90
3678;DHT22;1855;50.934;6.958;2023-05-23T00:23:23;15.90;99.10
3678;DHT22;1855;50.934;6.958;2023-05-23T00:25:50;15.90;99.10
3678;DHT22;1855;50.934;6.958;2023-05-23T00:28:20;15.90;99.30
3678;DHT22;1855;50.934;6.958;2023-05-23T00:30:47;15.80;99.50
3678;DHT22;1855;50.934;6.958;2023-05-23T00:33:14;15.80;99.80
3678;DHT22;1855;50.934;6.958;2023-05-23T00:35:41;15.70;99.60
3678;DHT22;1855;50.934;6.958;2023-05-23T00:38:08;15.70;99.90
3678;DHT22;1855;50.934;6.958;2023-05-23T00:40:36;15.60;99.90
3678;DHT22;1855;50.934;6.958;2023-05-23T00:43:02;15.70;99.90
3678;DHT22;1855;50.934;6.958;2023-05-23T00:45:30;15.60;99.90
3678;DHT22;1855;50.934;6.958;2023-05-23T00:47:57;15.60;99.90
3678;DHT22;1855;50.934;6.958;2023-05-23T00:50:25;15.60;99.90
3678;DHT22;1855;50.934;6.958;2023-05-23T00:52:54;15.60;99.90
3678;DHT22;1855;50.934;6.958;2023-05-23T00:55:22;15.60;99.70
3678;DHT22;1855;50.934;6.958;2023-05-23T00:57:49;15.70;99.90
3678;DHT22;1855;50.934;6.958;2023-05-23T01:00:16;15.70;99.90
3678;DHT22;1855;50.934;6.958;2023-05-23T01:02:46;15.70;99.70
3678;DHT22;1855;50.934;6.958;2023-05-23T01:05:16;15.70;99.40
3678;DHT22;1855;50.934;6.958;2023-05-23T01:07:43;15.80;99.50
3678;DHT22;1855;50.934;6.958;2023-05-23T01:10:12;15.80;98.20
3678;DHT22;1855;50.934;6.958;2023-05-23T01:12:46;15.90;98.00
3678;DHT22;1855;50.934;6.958;2023-05-23T01:15:17;15.90;98.00
3678;DHT22;1855;50.934;6.958;2023-05-23T01:17:54;15.90;98.00
3678;DHT22;1855;50.934;6.958;2023-05-23T01:20:27;15.90;98.10
3678;DHT22;1855;50.934;6.958;2023-05-23T01:23:17;16.00;97.60
3678;DHT22;1855;50.934;6.958;2023-05-23T01:25:57;16.00;97.30
3678;DHT22;1855;50.934;6.958;2023-05-23T01:28:31;16.00;97.40
3678;DHT22;1855;50.934;6.958;2023-05-23T01:31:02;16.00;97.40
3678;DHT22;1855;50.934;6.958;2023-05-23T01:33:31;16.10;97.10
3678;DHT22;1855;50.934;6.958;2023-05-23T01:36:00;16.10;97.20
3678;DHT22;1855;50.934;6.958;2023-05-23T01:38:27;16.10;97.40
3678;DHT22;1855;50.934;6.958;2023-05-23T01:40:54;16.00;97.40
3678;DHT22;1855;50.934;6.958;2023-05-23T01:43:21;16.00;97.70
3678;DHT22;1855;50.934;6.958;2023-05-23T01:45:51;16.00;97.70
3678;DHT22;1855;50.934;6.958;2023-05-23T01:48:20;16.00;97.70
3678;DHT22;1855;50.934;6.958;2023-05-23T01:50:47;16.10;98.00
3678;DHT22;1855;50.934;6.958;2023-05-23T01:53:15;16.10;97.60
3678;DHT22;1855;50.934;6.958;2023-05-23T01:55:42;16.00;97.90
3678;DHT22;1855;50.934;6.958;2023-05-23T01:58:09;16.10;98.20
3678;DHT22;1855;50.934;6.958;2023-05-23T02:00:36;16.10;97.80
3678;DHT22;1855;50.934;6.958;2023-05-23T02:03:04;16.10;97.20
3678;DHT22;1855;50.934;6.958;2023-05-23T02:05:31;16.10;97.30
3678;DHT22;1855;50.934;6.958;2023-05-23T02:07:58;16.10;96.40
3678;DHT22;1855;50.934;6.958;2023-05-23T02:10:25;16.00;96.10
3678;DHT22;1855;50.934;6.958;2023-05-23T02:12:51;16.00;96.30
3678;DHT22;1855;50.934;6.958;2023-05-23T02:15:18;15.90;96.60
3678;DHT22;1855;50.934;6.958;2023-05-23T02:17:45;15.90;96.20
3678;DHT22;1855;50.934;6.958;2023-05-23T02:20:14;15.90;96.90
3678;DHT22;1855;50.934;6.958;2023-05-23T02:22:43;15.90;96.30
3678;DHT22;1855;50.934;6.958;2023-05-23T02:25:10;15.90;96.00
3678;DHT22;1855;50.934;6.958;2023-05-23T02:27:36;15.80;95.80
3678;DHT22;1855;50.934;6.958;2023-05-23T02:30:04;15.80;95.70
3678;DHT22;1855;50.934;6.958;2023-05-23T02:32:31;15.80;95.90
3678;DHT22;1855;50.934;6.958;2023-05-23T02:34:57;15.70;95.80
3678;DHT22;1855;50.934;6.958;2023-05-23T02:37:25;15.70;96.30
3678;DHT22;1855;50.934;6.958;2023-05-23T02:39:52;15.70;95.60
3678;DHT22;1855;50.934;6.958;2023-05-23T02:42:19;15.80;96.00
3678;DHT22;1855;50.934;6.958;2023-05-23T02:44:46;15.80;95.80
3678;DHT22;1855;50.934;6.958;2023-05-23T02:47:12;15.80;95.80
3678;DHT22;1855;50.934;6.958;2023-05-23T02:49:39;15.80;95.70
3678;DHT22;1855;50.934;6.958;2023-05-23T02:52:06;15.80;95.90
3678;DHT22;1855;50.934;6.958;2023-05-23T02:54:34;15.80;96.10
3678;DHT22;1855;50.934;6.958;2023-05-23T02:57:01;15.80;95.80
3678;DHT22;1855;50.934;6.958;2023-05-23T02:59:28;15.80;95.60
3678;DHT22;1855;50.934;6.958;2023-05-23T03:01:55;15.70;95.80
3678;DHT22;1855;50.934;6.958;2023-05-23T03:04:22;15.60;96.30
3678;DHT22;1855;50.934;6.958;2023-05-23T03:06:49;15.60;96.40
3678;DHT22;1855;50.934;6.958;2023-05-23T03:09:19;15.60;96.90
3678;DHT22;1855;50.934;6.958;2023-05-23T03:11:47;15.70;96.60
3678;DHT22;1855;50.934;6.958;2023-05-23T03:14:14;15.60;96.30
3678;DHT22;1855;50.934;6.958;2023-05-23T03:16:40;15.70;96.60
3678;DHT22;1855;50.934;6.958;2023-05-23T03:19:07;15.60;96.70
3678;DHT22;1855;50.934;6.958;2023-05-23T03:21:34;15.60;96.50
3678;DHT22;1855;50.934;6.958;2023-05-23T03:24:01;15.60;96.70
3678;DHT22;1855;50.934;6.958;2023-05-23T03:26:27;15.60;97.00
3678;DHT22;1855;50.934;6.958;2023-05-23T03:28:56;15.60;96.90
3678;DHT22;1855;50.934;6.958;2023-05-23T03:31:23;15.50;97.10
3678;DHT22;1855;50.934;6.958;2023-05-23T03:33:50;15.50;97.10
3678;DHT22;1855;50.934;6.958;2023-05-23T03:36:18;15.50;97.40
3678;DHT22;1855;50.934;6.958;2023-05-23T03:38:46;15.50;97.60
3678;DHT22;1855;50.934;6.958;2023-05-23T03:41:13;15.40;98.10
3678;DHT22;1855;50.934;6.958;2023-05-23T03:43:39;15.40;98.90
3678;DHT22;1855;50.934;6.958;2023-05-23T03:46:07;15.30;99.90
3678;DHT22;1855;50.934;6.958;2023-05-23T03:48:34;15.20;99.90
3678;DHT22;1855;50.934;6.958;2023-05-23T03:51:01;15.20;99.90
3678;DHT22;1855;50.934;6.958;2023-05-23T03:53:28;15.20;99.90
3678;DHT22;1855;50.934;6.958;2023-05-23T03:55:55;15.10;99.90
3678;DHT22;1855;50.934;6.958;2023-05-23T03:58:21;15.10;99.90
3678;DHT22;1855;50.934;6.958;2023-05-23T04:00:48;15.10;99.90
3678;DHT22;1855;50.934;6.958;2023-05-23T04:03:16;15.10;99.90
3678;DHT22;1855;50.934;6.958;2023-05-23T04:05:43;15.10;99.90
3678;DHT22;1855;50.934;6.958;2023-05-23T04:08:10;15.10;99.90
3678;DHT22;1855;50.934;6.958;2023-05-23T04:10:37;15.10;99.50
3678;DHT22;1855;50.934;6.958;2023-05-23T04:13:04;15.10;99.60
3678;DHT22;1855;50.934;6.958;2023-05-23T04:15:31;15.10;99.30
3678;DHT22;1855;50.934;6.958;2023-05-23T04:17:59;15.10;99.10
3678;DHT22;1855;50.934;6.958;2023-05-23T04:20:29;15.10;99.20
3678;DHT22;1855;50.934;6.958;2023-05-23T04:22:56;15.10;98.90
3678;DHT22;1855;50.934;6.958;2023-05-23T04:25:22;15.10;99.40
3678;DHT22;1855;50.934;6.958;2023-05-23T04:27:49;15.20;98.80
3678;DHT22;1855;50.934;6.958;2023-05-23T04:30:16;15.20;98.80
3678;DHT22;1855;50.934;6.958;2023-05-23T04:32:43;15.30;98.50
3678;DHT22;1855;50.934;6.958;2023-05-23T04:35:10;15.30;98.40
3678;DHT22;1855;50.934;6.958;2023-05-23T04:37:38;15.30;97.90
3678;DHT22;1855;50.934;6.958;2023-05-23T04:40:07;15.30;98.10
3678;DHT22;1855;50.934;6.958;2023-05-23T04:42:34;15.30;98.20
3678;DHT22;1855;50.934;6.958;2023-05-23T04:45:01;15.30;98.30
3678;DHT22;1855;50.934;6.958;2023-05-23T04:47:28;15.30;97.90
3678;DHT22;1855;50.934;6.958;2023-05-23T04:49:59;15.30;98.00
3678;DHT22;1855;50.934;6.958;2023-05-23T04:52:26;15.30;98.00
3678;DHT22;1855;50.934;6.958;2023-05-23T04:54:55;15.30;98.50
3678;DHT22;1855;50.934;6.958;2023-05-23T04:57:22;15.20;98.40
3678;DHT22;1855;50.934;6.958;2023-05-23T04:59:48;15.20;99.20
3678;DHT22;1855;50.934;6.958;2023-05-23T05:02:15;15.20;98.90
3678;DHT22;1855;50.934;6.958;2023-05-23T05:04:42;15.10;99.40
3678;DHT22;1855;50.934;6.958;2023-05-23T05:07:09;15.00;99.90
3678;DHT22;1855;50.934;6.958;2023-05-23T05:09:36;15.00;99.90
3678;DHT22;1855;50.934;6.958;2023-05-23T05:12:04;15.00;99.90
3678;DHT22;1855;50.934;6.958;2023-05-23T05:14:31;15.00;99.90
3678;DHT22;1855;50.934;6.958;2023-05-23T05:16:58;14.90;99.90
3678;DHT22;1855;50.934;6.958;2023-05-23T05:19:27;14.90;99.90
3678;DHT22;1855;50.934;6.958;2023-05-23T05:21:53;14.90;99.90
3678;DHT22;1855;50.934;6.958;2023-05-23T05:24:22;14.90;99.90
3678;DHT22;1855;50.934;6.958;2023-05-23T05:26:49;14.90;99.90
3678;DHT22;1855;50.934;6.958;2023-05-23T05:29:17;15.00;99.60
3678;DHT22;1855;50.934;6.958;2023-05-23T05:31:43;15.00;99.70
3678;DHT22;1855;50.934;6.958;2023-05-23T05:34:11;15.00;99.50
3678;DHT22;1855;50.934;6.958;2023-05-23T05:36:38;15.00;99.80
3678;DHT22;1855;50.934;6.958;2023-05-23T05:39:10;15.10;99.80
3678;DHT22;1855;50.934;6.958;2023-05-23T05:41:37;15.10;99.30
3678;DHT22;1855;50.934;6.958;2023-05-23T05:44:04;15.10;99.50
3678;DHT22;1855;50.934;6.958;2023-05-23T05:46:32;15.10;99.50
3678;DHT22;1855;50.934;6.958;2023-05-23T05:48:59;15.10;99.50
3678;DHT22;1855;50.934;6.958;2023-05-23T05:51:25;15.10;99.10
3678;DHT22;1855;50.934;6.958;2023-05-23T05:53:52;15.10;99.10
3678;DHT22;1855;50.934;6.958;2023-05-23T05:56:19;15.10;99.30
3678;DHT22;1855;50.934;6.958;2023-05-23T05:58:47;15.10;99.60
3678;DHT22;1855;50.934;6.958;2023-05-23T06:01:13;15.10;99.70
3678;DHT22;1855;50.934;6.958;2023-05-23T06:03:41;15.20;99.00
3678;DHT22;1855;50.934;6.958;2023-05-23T06:06:08;15.20;98.90
3678;DHT22;1855;50.934;6.958;2023-05-23T06:08:35;15.20;98.80
3678;DHT22;1855;50.934;6.958;2023-05-23T06:11:02;15.20;98.80
3678;DHT22;1855;50.934;6.958;2023-05-23T06:13:29;15.10;99.30
3678;DHT22;1855;50.934;6.958;2023-05-23T06:15:55;15.20;99.50
3678;DHT22;1855;50.934;6.958;2023-05-23T06:18:22;15.20;99.10
3678;DHT22;1855;50.934;6.958;2023-05-23T06:20:50;15.20;99.10
3678;DHT22;1855;50.934;6.958;2023-05-23T06:23:17;15.20;99.30
3678;DHT22;1855;50.934;6.958;2023-05-23T06:25:44;15.30;99.30
3678;DHT22;1855;50.934;6.958;2023-05-23T06:28:10;15.30;98.90
3678;DHT22;1855;50.934;6.958;2023-05-23T06:30:37;15.30;98.90
3678;DHT22;1855;50.934;6.958;2023-05-23T06:33:04;15.20;99.10
3678;DHT22;1855;50.934;6.958;2023-05-23T06:35:31;15.20;99.30
3678;DHT22;1855;50.934;6.958;2023-05-23T06:37:59;15.20;99.80
3678;DHT22;1855;50.934;6.958;2023-05-23T06:40:26;15.30;99.30
3678;DHT22;1855;50.934;6.958;2023-05-23T06:42:52;15.30;98.90
3678;DHT22;1855;50.934;6.958;2023-05-23T06:45:20;15.20;98.90
3678;DHT22;1855;50.934;6.958;2023-05-23T06:47:46;15.20;99.20
3678;DHT22;1855;50.934;6.958;2023-05-23T06:50:13;15.20;99.10
3678;DHT22;1855;50.934;6.958;2023-05-23T06:52:44;15.10;99.90
3678;DHT22;1855;50.934;6.958;2023-05-23T06:55:12;15.20;99.90
3678;DHT22;1855;50.934;6.958;2023-05-23T06:57:43;15.20;99.90
3678;DHT22;1855;50.934;6.958;2023-05-23T07:00:11;15.10;99.90
3678;DHT22;1855;50.934;6.958;2023-05-23T07:02:39;15.10;99.90
3678;DHT22;1855;50.934;6.958;2023-05-23T07:05:06;15.20;99.90
3678;DHT22;1855;50.934;6.958;2023-05-23T07:07:33;15.30;99.60
3678;DHT22;1855;50.934;6.958;2023-05-23T07:10:00;15.30;99.50
3678;DHT22;1855;50.934;6.958;2023-05-23T07:12:28;15.40;99.40
3678;DHT22;1855;50.934;6.958;2023-05-23T07:14:55;15.50;98.10
3678;DHT22;1855;50.934;6.958;2023-05-23T07:17:21;15.50;97.70
3678;DHT22;1855;50.934;6.958;2023-05-23T07:19:48;15.50;97.80
3678;DHT22;1855;50.934;6.958;2023-05-23T07:22:15;15.50;97.20
3678;DHT22;1855;50.934;6.958;2023-05-23T07:24:41;15.50;97.60
3678;DHT22;1855;50.934;6.958;2023-05-23T07:27:08;15.50;97.60
3678;DHT22;1855;50.934;6.958;2023-05-23T07:29:36;15.60;97.40
3678;DHT22;1855;50.934;6.958;2023-05-23T07:32:03;15.60;97.60
3678;DHT22;1855;50.934;6.958;2023-05-23T07:34:30;15.70;97.50
3678;DHT22;1855;50.934;6.958;2023-05-23T07:36:57;15.70;97.50
3678;DHT22;1855;50.934;6.958;2023-05-23T07:39:23;15.80;97.50
3678;DHT22;1855;50.934;6.958;2023-05-23T07:41:52;15.80;97.10
3678;DHT22;1855;50.934;6.958;2023-05-23T07:44:19;15.70;97.40
3678;DHT22;1855;50.934;6.958;2023-05-23T07:46:47;15.80;97.20
3678;DHT22;1855;50.934;6.958;2023-05-23T07:49:14;15.70;97.40
3678;DHT22;1855;50.934;6.958;2023-05-23T07:51:40;15.80;96.90
3678;DHT22;1855;50.934;6.958;2023-05-23T07:54:08;15.70;96.90
3678;DHT22;1855;50.934;6.958;2023-05-23T07:56:34;15.60;97.40
3678;DHT22;1855;50.934;6.958;2023-05-23T07:59:02;15.60;97.70
3678;DHT22;1855;50.934;6.958;2023-05-23T08:01:29;15.70;98.00
3678;DHT22;1855;50.934;6.958;2023-05-23T08:03:57;15.80;97.40
3678;DHT22;1855;50.934;6.958;2023-05-23T08:06:24;15.90;97.00
3678;DHT22;1855;50.934;6.958;2023-05-23T08:08:51;15.90;96.50
3678;DHT22;1855;50.934;6.958;2023-05-23T08:11:17;15.90;96.50
3678;DHT22;1855;50.934;6.958;2023-05-23T08:13:44;15.90;96.50
3678;DHT22;1855;50.934;6.958;2023-05-23T08:16:11;15.90;96.80
3678;DHT22;1855;50.934;6.958;2023-05-23T08:18:38;16.00;96.90
3678;DHT22;1855;50.934;6.958;2023-05-23T08:21:06;16.00;95.50
3678;DHT22;1855;50.934;6.958;2023-05-23T08:23:33;16.00;95.60
3678;DHT22;1855;50.934;6.958;2023-05-23T08:26:00;16.00;95.60
3678;DHT22;1855;50.934;6.958;2023-05-23T08:28:27;16.00;95.50
3678;DHT22;1855;50.934;6.958;2023-05-23T08:30:53;15.90;95.50
3678;DHT22;1855;50.934;6.958;2023-05-23T08:33:21;15.80;95.50
3678;DHT22;1855;50.934;6.958;2023-05-23T08:35:48;15.80;95.40
3678;DHT22;1855;50.934;6.958;2023-05-23T08:38:16;15.70;96.00
3678;DHT22;1855;50.934;6.958;2023-05-23T08:40:48;15.60;96.40
3678;DHT22;1855;50.934;6.958;2023-05-23T08:43:16;15.70;96.30
3678;DHT22;1855;50.934;6.958;2023-05-23T08:45:43;15.70;96.00
3678;DHT22;1855;50.934;6.958;2023-05-23T08:48:12;15.60;96.20
3678;DHT22;1855;50.934;6.958;2023-05-23T08:50:42;15.60;96.40
3678;DHT22;1855;50.934;6.958;2023-05-23T08:53:13;15.60;96.70
3678;DHT22;1855;50.934;6.958;2023-05-23T08:55:46;15.60;97.00
3678;DHT22;1855;50.934;6.958;2023-05-23T08:58:14;15.60;97.40
3678;DHT22;1855;50.934;6.958;2023-05-23T09:00:42;15.60;97.30
3678;DHT22;1855;50.934;6.958;2023-05-23T09:03:09;15.50;96.20
3678;DHT22;1855;50.934;6.958;2023-05-23T09:05:36;15.40;97.00
3678;DHT22;1855;50.934;6.958;2023-05-23T09:08:03;15.40;97.30
3678;DHT22;1855;50.934;6.958;2023-05-23T09:10:30;15.40;97.50
3678;DHT22;1855;50.934;6.958;2023-05-23T09:12:58;15.40;97.70
3678;DHT22;1855;50.934;6.958;2023-05-23T09:15:26;15.60;97.40
3678;DHT22;1855;50.934;6.958;2023-05-23T09:17:58;15.60;97.10
3678;DHT22;1855;50.934;6.958;2023-05-23T09:20:27;15.70;96.80
3678;DHT22;1855;50.934;6.958;2023-05-23T09:22:54;15.70;97.00
3678;DHT22;1855;50.934;6.958;2023-05-23T09:25:21;15.80;97.00
3678;DHT22;1855;50.934;6.958;2023-05-23T09:27:48;15.80;97.20
3678;DHT22;1855;50.934;6.958;2023-05-23T09:30:16;15.80;96.80
3678;DHT22;1855;50.934;6.958;2023-05-23T09:32:57;15.90;96.10
3678;DHT22;1855;50.934;6.958;2023-05-23T09:35:24;15.80;96.50
3678;DHT22;1855;50.934;6.958;2023-05-23T09:37:52;15.70;96.60
3678;DHT22;1855;50.934;6.958;2023-05-23T09:40:20;15.70;96.40
3678;DHT22;1855;50.934;6.958;2023-05-23T09:42:49;15.60;96.90
3678;DHT22;1855;50.934;6.958;2023-05-23T09:45:17;15.60;96.20
3678;DHT22;1855;50.934;6.958;2023-05-23T09:47:48;15.50;96.20
3678;DHT22;1855;50.934;6.958;2023-05-23T09:50:16;15.40;96.00
3678;DHT22;1855;50.934;6.958;2023-05-23T09:52:43;15.40;95.80
3678;DHT22;1855;50.934;6.958;2023-05-23T09:55:11;15.40;95.90
3678;DHT22;1855;50.934;6.958;2023-05-23T09:57:40;15.40;96.00
3678;DHT22;1855;50.934;6.958;2023-05-23T10:00:07;15.50;95.90
3678;DHT22;1855;50.934;6.958;2023-05-23T10:02:54;15.50;95.60
3678;DHT22;1855;50.934;6.958;2023-05-23T10:05:33;15.50;95.40
3678;DHT22;1855;50.934;6.958;2023-05-23T10:08:01;15.50;94.80
3678;DHT22;1855;50.934;6.958;2023-05-23T10:10:32;15.60;94.70
3678;DHT22;1855;50.934;6.958;2023-05-23T10:13:01;15.70;94.70
3678;DHT22;1855;50.934;6.958;2023-05-23T10:15:34;15.90;94.70
3678;DHT22;1855;50.934;6.958;2023-05-23T10:18:08;16.20;94.00
3678;DHT22;1855;50.934;6.958;2023-05-23T10:20:38;16.60;93.40
3678;DHT22;1855;50.934;6.958;2023-05-23T10:23:05;16.90;91.70
3678;DHT22;1855;50.934;6.958;2023-05-23T10:25:32;16.90;91.40
3678;DHT22;1855;50.934;6.958;2023-05-23T10:28:01;16.70;90.10
3678;DHT22;1855;50.934;6.958;2023-05-23T10:30:28;16.50;91.50
3678;DHT22;1855;50.934;6.958;2023-05-23T10:32:55;16.20;91.60
3678;DHT22;1855;50.934;6.958;2023-05-23T10:35:34;16.00;91.70
3678;DHT22;1855;50.934;6.958;2023-05-23T10:38:07;16.00;91.40
3678;DHT22;1855;50.934;6.958;2023-05-23T10:40:45;15.80;91.40
3678;DHT22;1855;50.934;6.958;2023-05-23T10:43:19;15.70;92.70
3678;DHT22;1855;50.934;6.958;2023-05-23T10:45:48;15.80;92.70
3678;DHT22;1855;50.934;6.958;2023-05-23T10:48:19;15.90;91.80
3678;DHT22;1855;50.934;6.958;2023-05-23T10:51:01;15.80;90.80
3678;DHT22;1855;50.934;6.958;2023-05-23T10:53:31;16.00;90.50
3678;DHT22;1855;50.934;6.958;2023-05-23T10:55:58;16.00;90.60
3678;DHT22;1855;50.934;6.958;2023-05-23T10:58:24;16.10;89.20
3678;DHT22;1855;50.934;6.958;2023-05-23T11:00:56;16.20;88.80
3678;DHT22;1855;50.934;6.958;2023-05-23T11:03:33;16.30;89.20
3678;DHT22;1855;50.934;6.958;2023-05-23T11:06:02;16.50;89.70
3678;DHT22;1855;50.934;6.958;2023-05-23T11:08:39;16.60;87.50
3678;DHT22;1855;50.934;6.958;2023-05-23T11:11:07;16.50;88.10
3678;DHT22;1855;50.934;6.958;2023-05-23T11:13:54;16.30;88.40
3678;DHT22;1855;50.934;6.958;2023-05-23T11:16:26;16.20;88.80
3678;DHT22;1855;50.934;6.958;2023-05-23T11:19:20;16.10;89.30
3678;DHT22;1855;50.934;6.958;2023-05-23T11:21:52;16.00;89.50
3678;DHT22;1855;50.934;6.958;2023-05-23T11:24:19;16.00;86.90
3678;DHT22;1855;50.934;6.958;2023-05-23T11:26:52;15.90;89.00
3678;DHT22;1855;50.934;6.958;2023-05-23T11:29:21;15.80;89.90
3678;DHT22;1855;50.934;6.958;2023-05-23T11:31:48;15.80;89.30
3678;DHT22;1855;50.934;6.958;2023-05-23T11:34:15;15.80;87.40
3678;DHT22;1855;50.934;6.958;2023-05-23T11:36:42;15.70;87.80
3678;DHT22;1855;50.934;6.958;2023-05-23T11:39:12;15.70;88.00
3678;DHT22;1855;50.934;6.958;2023-05-23T11:41:40;15.80;86.70
3678;DHT22;1855;50.934;6.958;2023-05-23T11:44:11;15.90;86.80
3678;DHT22;1855;50.934;6.958;2023-05-23T11:46:38;16.10;86.90
3678;DHT22;1855;50.934;6.958;2023-05-23T11:49:10;16.30;85.20
3678;DHT22;1855;50.934;6.958;2023-05-23T11:51:37;16.60;83.20
3678;DHT22;1855;50.934;6.958;2023-05-23T11:54:04;16.90;81.20
3678;DHT22;1855;50.934;6.958;2023-05-23T11:56:38;17.30;79.20
3678;DHT22;1855;50.934;6.958;2023-05-23T11:59:05;17.80;76.60
3678;DHT22;1855;50.934;6.958;2023-05-23T12:01:32;18.20;75.20
3678;DHT22;1855;50.934;6.958;2023-05-23T12:03:59;18.60;74.10
3678;DHT22;1855;50.934;6.958;2023-05-23T12:06:25;19.10;70.70
3678;DHT22;1855;50.934;6.958;2023-05-23T12:08:52;19.50;68.60
3678;DHT22;1855;50.934;6.958;2023-05-23T12:11:19;19.90;63.60
3678;DHT22;1855;50.934;6.958;2023-05-23T12:13:51;20.00;63.40
3678;DHT22;1855;50.934;6.958;2023-05-23T12:16:18;20.10;62.30
3678;DHT22;1855;50.934;6.958;2023-05-23T12:18:46;19.90;62.40
3678;DHT22;1855;50.934;6.958;2023-05-23T12:21:13;19.70;64.10
3678;DHT22;1855;50.934;6.958;2023-05-23T12:23:41;19.50;64.40
3678;DHT22;1855;50.934;6.958;2023-05-23T12:26:07;19.50;64.20
3678;DHT22;1855;50.934;6.958;2023-05-23T12:28:36;19.60;64.20
3678;DHT22;1855;50.934;6.958;2023-05-23T12:31:14;19.60;63.40
3678;DHT22;1855;50.934;6.958;2023-05-23T12:33:42;19.60;62.60
3678;DHT22;1855;50.934;6.958;2023-05-23T12:36:09;19.50;62.40
3678;DHT22;1855;50.934;6.958;2023-05-23T12:38:36;19.40;63.40
3678;DHT22;1855;50.934;6.958;2023-05-23T12:41:09;19.30;63.00
3678;DHT22;1855;50.934;6.958;2023-05-23T12:43:37;19.10;63.50
3678;DHT22;1855;50.934;6.958;2023-05-23T12:46:04;19.10;65.30
3678;DHT22;1855;50.934;6.958;2023-05-23T12:48:32;19.10;64.20
3678;DHT22;1855;50.934;6.958;2023-05-23T12:50:59;19.20;62.90
3678;DHT22;1855;50.934;6.958;2023-05-23T12:53:28;19.40;63.50
3678;DHT22;1855;50.934;6.958;2023-05-23T12:55:54;19.50;61.10
3678;DHT22;1855;50.934;6.958;2023-05-23T12:58:21;19.40;62.00
3678;DHT22;1855;50.934;6.958;2023-05-23T13:00:48;19.30;59.60
3678;DHT22;1855;50.934;6.958;2023-05-23T13:03:15;19.30;60.90
3678;DHT22;1855;50.934;6.958;2023-05-23T13:05:43;19.30;61.10
3678;DHT22;1855;50.934;6.958;2023-05-23T13:08:09;19.10;59.50
3678;DHT22;1855;50.934;6.958;2023-05-23T13:10:37;18.90;59.70
3678;DHT22;1855;50.934;6.958;2023-05-23T13:13:04;18.70;61.90
3678;DHT22;1855;50.934;6.958;2023-05-23T13:15:31;18.70;63.10
3678;DHT22;1855;50.934;6.958;2023-05-23T13:17:58;18.70;62.50
3678;DHT22;1855;50.934;6.958;2023-05-23T13:20:25;18.90;62.60
3678;DHT22;1855;50.934;6.958;2023-05-23T13:22:55;19.10;62.60
3678;DHT22;1855;50.934;6.958;2023-05-23T13:25:22;19.30;60.60
3678;DHT22;1855;50.934;6.958;2023-05-23T13:27:49;19.40;59.80
3678;DHT22;1855;50.934;6.958;2023-05-23T13:30:17;19.50;58.10
3678;DHT22;1855;50.934;6.958;2023-05-23T13:32:44;19.70;55.70
3678;DHT22;1855;50.934;6.958;2023-05-23T13:35:11;19.80;55.80
3678;DHT22;1855;50.934;6.958;2023-05-23T13:37:38;20.10;57.30
3678;DHT22;1855;50.934;6.958;2023-05-23T13:40:10;20.20;55.10
3678;DHT22;1855;50.934;6.958;2023-05-23T13:42:37;20.30;53.40
3678;DHT22;1855;50.934;6.958;2023-05-23T13:45:06;20.30;53.60
3678;DHT22;1855;50.934;6.958;2023-05-23T13:47:33;20.40;53.30
3678;DHT22;1855;50.934;6.958;2023-05-23T13:50:00;20.80;53.50
3678;DHT22;1855;50.934;6.958;2023-05-23T13:52:27;21.40;51.00
3678;DHT22;1855;50.934;6.958;2023-05-23T13:54:54;21.70;48.10
3678;DHT22;1855;50.934;6.958;2023-05-23T13:57:22;21.60;47.30
3678;DHT22;1855;50.934;6.958;2023-05-23T13:59:49;22.10;47.60
3678;DHT22;1855;50.934;6.958;2023-05-23T14:02:15;22.50;42.20
3678;DHT22;1855;50.934;6.958;2023-05-23T14:04:42;22.20;43.20
3678;DHT22;1855;50.934;6.958;2023-05-23T14:07:09;21.80;43.80
3678;DHT22;1855;50.934;6.958;2023-05-23T14:09:35;21.40;43.30
3678;DHT22;1855;50.934;6.958;2023-05-23T14:12:03;21.60;42.70
3678;DHT22;1855;50.934;6.958;2023-05-23T14:14:31;21.70;42.70
3678;DHT22;1855;50.934;6.958;2023-05-23T14:16:58;21.50;43.50
3678;DHT22;1855;50.934;6.958;2023-05-23T14:19:24;21.80;43.10
3678;DHT22;1855;50.934;6.958;2023-05-23T14:21:51;22.40;43.00
3678;DHT22;1855;50.934;6.958;2023-05-23T14:24:18;22.40;41.70
3678;DHT22;1855;50.934;6.958;2023-05-23T14:26:46;22.10;41.00
3678;DHT22;1855;50.934;6.958;2023-05-23T14:29:14;21.80;41.90
3678;DHT22;1855;50.934;6.958;2023-05-23T14:31:42;21.90;42.90
3678;DHT22;1855;50.934;6.958;2023-05-23T14:34:09;21.90;42.60
3678;DHT22;1855;50.934;6.958;2023-05-23T14:36:35;21.80;42.50
3678;DHT22;1855;50.934;6.958;2023-05-23T14:39:02;21.80;42.20
3678;DHT22;1855;50.934;6.958;2023-05-23T14:41:29;21.50;43.00
3678;DHT22;1855;50.934;6.958;2023-05-23T14:43:57;21.30;43.90
3678;DHT22;1855;50.934;6.958;2023-05-23T14:46:24;21.10;44.20
3678;DHT22;1855;50.934;6.958;2023-05-23T14:48:52;21.10;44.40
3678;DHT22;1855;50.934;6.958;2023-05-23T14:51:18;21.10;43.70
3678;DHT22;1855;50.934;6.958;2023-05-23T14:53:45;21.20;44.10
3678;DHT22;1855;50.934;6.958;2023-05-23T14:56:12;21.40;43.90
3678;DHT22;1855;50.934;6.958;2023-05-23T14:58:39;21.70;44.10
3678;DHT22;1855;50.934;6.958;2023-05-23T15:01:10;22.20;41.20
3678;DHT22;1855;50.934;6.958;2023-05-23T15:03:37;22.40;41.60
3678;DHT22;1855;50.934;6.958;2023-05-23T15:06:05;22.20;41.30
3678;DHT22;1855;50.934;6.958;2023-05-23T15:08:32;21.90;42.30
3678;DHT22;1855;50.934;6.958;2023-05-23T15:10:59;21.60;43.00
3678;DHT22;1855;50.934;6.958;2023-05-23T15:13:26;21.30;44.30
3678;DHT22;1855;50.934;6.958;2023-05-23T15:15:53;21.00;43.40
3678;DHT22;1855;50.934;6.958;2023-05-23T15:18:21;20.70;44.30
3678;DHT22;1855;50.934;6.958;2023-05-23T15:20:49;20.40;44.30
3678;DHT22;1855;50.934;6.958;2023-05-23T15:23:17;20.30;45.20
3678;DHT22;1855;50.934;6.958;2023-05-23T15:25:44;20.30;45.70
3678;DHT22;1855;50.934;6.958;2023-05-23T15:28:11;20.30;45.50
3678;DHT22;1855;50.934;6.958;2023-05-23T15:30:37;20.20;45.10
3678;DHT22;1855;50.934;6.958;2023-05-23T15:33:04;20.10;45.80
3678;DHT22;1855;50.934;6.958;2023-05-23T15:35:31;19.90;47.00
3678;DHT22;1855;50.934;6.958;2023-05-23T15:37:58;19.90;47.60
3678;DHT22;1855;50.934;6.958;2023-05-23T15:40:26;19.70;46.70
3678;DHT22;1855;50.934;6.958;2023-05-23T15:42:53;19.60;47.40
3678;DHT22;1855;50.934;6.958;2023-05-23T15:45:20;19.70;48.30
3678;DHT22;1855;50.934;6.958;2023-05-23T15:47:46;20.20;47.40
3678;DHT22;1855;50.934;6.958;2023-05-23T15:50:13;20.40;45.80
3678;DHT22;1855;50.934;6.958;2023-05-23T15:52:40;20.60;45.50
3678;DHT22;1855;50.934;6.958;2023-05-23T15:55:07;20.60;46.00
3678;DHT22;1855;50.934;6.958;2023-05-23T15:57:35;20.60;45.80
3678;DHT22;1855;50.934;6.958;2023-05-23T16:00:02;20.90;44.70
3678;DHT22;1855;50.934;6.958;2023-05-23T16:02:30;21.00;43.90
3678;DHT22;1855;50.934;6.958;2023-05-23T16:04:57;20.90;43.60
3678;DHT22;1855;50.934;6.958;2023-05-23T16:07:24;21.30;43.90